Time;durP1;ratioP1;P1;durP2;ratioP2;P2;SDS_P1;SDS_P2;PMS_P1;PMS_P2;Temp;Humidity;BMP_temperature;BMP_pressure;BME280_temperature;BME280_humidity;BME280_pressure;Samples;Min_cycle;Max_cycle;Signal;HPM_P1;HPM_P2
2022/09/08 00:01:33;;;;;;;47.80;8.18;;;;;;;23.29;100.00;97340.59;4967439;28;20213;-53
2022/09/08 00:04:01;;;;;;;41.67;7.65;;;;;;;23.43;100.00;97358.59;4969816;28;20113;-53
2022/09/08 00:06:26;;;;;;;58.72;8.93;;;;;;;23.24;100.00;97359.66;4970120;28;20042;-53
2022/09/08 00:08:55;;;;;;;41.10;8.25;;;;;;;23.21;100.00;97359.97;4970615;28;20072;-52
2022/09/08 00:11:23;;;;;;;60.80;9.80;;;;;;;23.16;100.00;97356.97;4968326;28;20046;-53
2022/09/08 00:13:49;;;;;;;49.72;8.30;;;;;;;23.49;100.00;97357.13;4970439;28;20771;-53
2022/09/08 00:16:19;;;;;;;51.28;8.45;;;;;;;23.48;100.00;97358.13;4965408;28;20618;-53
2022/09/08 00:18:44;;;;;;;43.45;7.50;;;;;;;23.72;100.00;97356.53;4970247;28;20083;-53
2022/09/08 00:21:10;;;;;;;48.35;8.18;;;;;;;22.79;100.00;97362.50;4971219;28;20049;-52
2022/09/08 00:23:36;;;;;;;46.13;8.68;;;;;;;23.05;100.00;97374.03;4973898;28;20427;-53
2022/09/08 00:26:02;;;;;;;33.20;7.05;;;;;;;23.01;100.00;97390.41;4971453;28;20085;-53
2022/09/08 00:28:27;;;;;;;51.00;8.23;;;;;;;22.50;100.00;97388.38;4971215;28;20026;-55
2022/09/08 00:30:54;;;;;;;45.70;8.50;;;;;;;22.49;100.00;97397.34;4966701;28;20925;-53
2022/09/08 00:33:21;;;;;;;46.55;8.18;;;;;;;22.72;100.00;97386.25;4966810;28;20035;-54
2022/09/08 00:35:51;;;;;;;44.00;7.80;;;;;;;22.31;100.00;97388.53;4970390;28;20741;-53
2022/09/08 00:38:19;;;;;;;47.15;8.25;;;;;;;22.11;100.00;97391.31;4984520;28;20509;-54
2022/09/08 00:40:46;;;;;;;59.00;9.40;;;;;;;22.54;100.00;97396.06;4968079;28;20432;-56
2022/09/08 00:43:32;;;;;;;52.30;8.23;;;;;;;22.32;100.00;97395.53;4968946;28;20767;-54
2022/09/08 00:46:04;;;;;;;40.30;7.28;;;;;;;22.56;100.00;97397.56;4984056;28;20226;-54
2022/09/08 00:48:31;;;;;;;40.78;7.10;;;;;;;22.49;100.00;97394.66;4979595;28;20026;-54
2022/09/08 00:50:58;;;;;;;53.30;8.05;;;;;;;22.02;100.00;97409.94;4968099;28;20133;-53
2022/09/08 00:53:25;;;;;;;44.83;7.45;;;;;;;22.44;100.00;97401.44;4970831;28;20050;-54
2022/09/08 00:55:52;;;;;;;53.47;7.95;;;;;;;22.56;100.00;97412.69;4966884;28;20123;-53
2022/09/08 00:58:17;;;;;;;47.50;8.00;;;;;;;21.96;100.00;97411.38;4970022;28;20563;-54
2022/09/08 01:00:43;;;;;;;51.25;8.32;;;;;;;21.82;100.00;97449.91;4966986;28;20039;-53
2022/09/08 01:03:11;;;;;;;35.22;6.80;;;;;;;21.15;100.00;97465.03;4970255;28;20022;-53
2022/09/08 01:06:12;;;;;;;43.95;7.53;;;;;;;21.85;100.00;97464.69;4969183;28;20121;-54
2022/09/08 01:14:50;;;;;;;37.67;6.40;;;;;;;21.15;100.00;97467.66;4968424;28;20613;-54
2022/09/08 01:17:24;;;;;;;52.05;7.57;;;;;;;21.02;100.00;97485.69;4968133;28;20054;-54
2022/09/08 01:19:51;;;;;;;61.28;8.32;;;;;;;28.23;100.00;97429.16;4969732;28;20031;-57
2022/09/08 01:22:23;;;;;;;41.83;7.05;;;;;;;26.45;100.00;97410.16;4969748;28;20100;-56
2022/09/08 01:25:04;;;;;;;37.63;8.27;;;;;;;26.00;100.00;97414.47;4970029;28;20444;-55
2022/09/08 01:27:31;;;;;;;36.65;6.97;;;;;;;26.18;100.00;97404.34;4972114;28;20118;-54
2022/09/08 01:30:09;;;;;;;38.72;7.25;;;;;;;26.26;100.00;97401.59;4969958;28;20030;-54
2022/09/08 01:32:37;;;;;;;41.15;7.15;;;;;;;25.80;100.00;97390.81;4967390;28;20054;-56
2022/09/08 01:35:04;;;;;;;47.15;8.10;;;;;;;26.14;100.00;97382.47;4971400;28;20050;-55
2022/09/08 01:37:29;;;;;;;37.00;6.63;;;;;;;26.50;100.00;97381.06;4969269;28;20042;-54
2022/09/08 01:39:56;;;;;;;45.22;7.05;;;;;;;26.48;100.00;97373.19;4968520;28;20036;-54
2022/09/08 01:42:21;;;;;;;36.03;6.35;;;;;;;25.65;100.00;97368.53;4968878;28;20054;-55
2022/09/08 01:44:47;;;;;;;45.25;7.05;;;;;;;25.76;100.00;97357.44;4969849;28;20066;-53
2022/09/08 01:47:12;;;;;;;52.50;7.82;;;;;;;25.76;100.00;97358.28;4969538;28;20038;-54
2022/09/08 01:49:37;;;;;;;35.63;6.28;;;;;;;25.83;100.00;97357.59;4968367;28;20117;-53
2022/09/08 01:52:03;;;;;;;38.97;6.18;;;;;;;26.01;100.00;97349.31;4965818;28;20109;-54
2022/09/08 01:54:29;;;;;;;43.22;6.18;;;;;;;25.55;100.00;97324.16;4983728;28;20085;-55
2022/09/08 01:56:55;;;;;;;37.10;5.75;;;;;;;25.17;100.00;97313.28;4968713;28;20035;-55
2022/09/08 01:59:21;;;;;;;53.35;7.70;;;;;;;25.73;100.00;97309.72;4970900;28;20030;-56
2022/09/08 02:01:47;;;;;;;36.72;5.80;;;;;;;26.18;100.00;97296.59;4967075;28;20052;-54
2022/09/08 02:04:12;;;;;;;47.97;6.82;;;;;;;25.92;100.00;97309.31;4968575;28;20038;-53
2022/09/08 02:06:38;;;;;;;31.92;5.70;;;;;;;26.01;100.00;97306.56;4966656;28;20129;-54
2022/09/08 02:09:03;;;;;;;39.80;6.03;;;;;;;25.72;100.00;97281.34;4968389;28;20062;-54
2022/09/08 02:11:29;;;;;;;47.33;6.65;;;;;;;25.58;100.00;97269.56;4966890;28;20133;-54
2022/09/08 02:13:54;;;;;;;50.83;7.20;;;;;;;24.58;100.00;97262.09;4969596;28;20019;-54
2022/09/08 02:16:20;;;;;;;45.53;6.38;;;;;;;25.24;100.00;97264.59;4969445;28;20090;-53
2022/09/08 02:18:46;;;;;;;41.20;5.78;;;;;;;24.17;100.00;97260.28;4968308;28;20026;-52
2022/09/08 02:21:19;;;;;;;38.65;5.38;;;;;;;24.55;100.00;97249.09;4967853;28;20121;-53
2022/09/08 02:23:46;;;;;;;38.58;5.95;;;;;;;24.43;100.00;97241.41;4967892;28;20026;-53
2022/09/08 02:26:24;;;;;;;29.80;5.00;;;;;;;24.39;100.00;97256.09;4969498;28;20038;-53
2022/09/08 02:28:52;;;;;;;46.20;6.57;;;;;;;24.95;100.00;97260.66;4967935;28;20057;-53
2022/09/08 02:31:17;;;;;;;48.92;6.28;;;;;;;25.28;100.00;97261.41;4965228;28;20996;-57
2022/09/08 02:33:43;;;;;;;48.90;6.18;;;;;;;25.11;100.00;97247.25;4969816;28;20039;-56
2022/09/08 02:36:08;;;;;;;42.50;5.82;;;;;;;25.10;100.00;97256.25;4968443;28;20583;-54
2022/09/08 02:38:34;;;;;;;39.22;5.82;;;;;;;24.91;100.00;97244.16;4967973;28;20033;-55
2022/09/08 02:41:00;;;;;;;34.58;5.07;;;;;;;25.05;100.00;97242.59;4967168;28;20089;-55
2022/09/08 02:43:27;;;;;;;39.50;5.43;;;;;;;24.96;100.00;97236.50;4968600;28;20489;-55
2022/09/08 02:45:53;;;;;;;44.08;6.15;;;;;;;25.68;100.00;97232.00;4967455;28;20129;-54
2022/09/08 02:48:18;;;;;;;46.58;6.30;;;;;;;24.99;100.00;97233.44;4984138;28;20145;-56
2022/09/08 02:50:44;;;;;;;46.03;6.05;;;;;;;25.23;100.00;97244.22;4968965;28;20534;-54
2022/09/08 02:53:09;;;;;;;35.05;5.30;;;;;;;25.20;100.00;97254.22;4969106;28;20089;-56
2022/09/08 02:55:42;;;;;;;37.83;5.70;;;;;;;24.86;100.00;97249.19;4968521;28;20596;-56
2022/09/08 02:58:09;;;;;;;32.45;5.18;;;;;;;25.62;100.00;97251.38;4968059;28;20429;-54
2022/09/08 03:00:36;;;;;;;42.50;5.50;;;;;;;25.11;100.00;97265.94;4967190;28;20587;-54
2022/09/08 03:03:02;;;;;;;37.40;5.32;;;;;;;24.93;100.00;97270.69;4966661;28;20031;-55
2022/09/08 03:05:29;;;;;;;35.47;5.35;;;;;;;24.79;100.00;97259.72;4966893;28;20046;-54
2022/09/08 03:07:55;;;;;;;46.00;6.13;;;;;;;25.18;100.00;97263.41;4968137;28;20126;-55
2022/09/08 03:10:23;;;;;;;43.10;6.35;;;;;;;25.33;100.00;97258.22;4966462;28;20035;-55
2022/09/08 03:12:55;;;;;;;47.60;6.38;;;;;;;25.35;100.00;97253.53;4965179;28;20652;-56
2022/09/08 03:15:23;;;;;;;41.95;5.60;;;;;;;25.28;100.00;97268.56;4965596;28;20172;-54
2022/09/08 03:17:48;;;;;;;39.95;5.57;;;;;;;25.41;100.00;97252.00;4967389;28;20558;-56
2022/09/08 03:20:14;;;;;;;31.95;4.95;;;;;;;25.10;100.00;97240.25;4966246;28;20069;-55
2022/09/08 03:22:40;;;;;;;43.92;5.75;;;;;;;25.39;100.00;97233.47;4966167;28;20034;-54
2022/09/08 03:25:05;;;;;;;45.70;5.85;;;;;;;25.32;100.00;97216.50;4968417;28;20042;-55
2022/09/08 03:27:31;;;;;;;41.92;5.88;;;;;;;24.81;100.00;97208.84;4966591;28;20173;-54
2022/09/08 03:29:56;;;;;;;30.45;4.70;;;;;;;25.28;100.00;97215.19;4967356;28;20113;-54
2022/09/08 03:32:22;;;;;;;41.05;5.93;;;;;;;25.08;100.00;97210.25;4965860;28;20072;-54
2022/09/08 03:34:47;;;;;;;35.60;5.90;;;;;;;25.09;100.00;97203.91;4970312;28;20068;-58
2022/09/08 03:37:13;;;;;;;41.97;5.88;;;;;;;24.51;100.00;97205.91;4964961;28;20046;-55
2022/09/08 03:39:38;;;;;;;37.25;5.03;;;;;;;24.53;100.00;97206.59;4966790;28;20515;-53
2022/09/08 03:42:05;;;;;;;35.08;5.03;;;;;;;24.60;100.00;97207.59;4968155;28;20092;-55
2022/09/08 03:44:31;;;;;;;38.17;5.22;;;;;;;24.24;100.00;97196.47;4967569;28;20590;-54
2022/09/08 03:46:56;;;;;;;27.63;4.43;;;;;;;24.97;100.00;97197.31;4969125;28;20039;-54
2022/09/08 03:49:22;;;;;;;37.90;5.45;;;;;;;23.58;100.00;97201.78;4967721;28;20034;-54
2022/09/08 03:51:47;;;;;;;38.30;5.32;;;;;;;24.24;100.00;97185.81;4965634;28;20070;-54
2022/09/08 03:56:56;;;;;;;39.35;5.28;;;;;;;23.90;100.00;97202.84;4968339;28;20073;-54
2022/09/08 03:59:23;;;;;;;43.17;6.07;;;;;;;24.36;100.00;97203.13;4967542;28;20034;-54
2022/09/08 04:01:48;;;;;;;41.05;5.38;;;;;;;24.64;100.00;97202.75;4967383;28;20042;-54
2022/09/08 04:04:14;;;;;;;41.42;5.93;;;;;;;24.88;100.00;97204.50;4966579;28;20061;-54
2022/09/08 04:06:39;;;;;;;40.65;6.10;;;;;;;24.12;100.00;97219.97;4980892;28;20073;-53
2022/09/08 04:09:05;;;;;;;42.60;5.68;;;;;;;23.90;100.00;97215.31;4967644;28;20027;-56
2022/09/08 04:11:31;;;;;;;39.78;5.50;;;;;;;24.47;100.00;97212.59;4967990;28;20049;-57
2022/09/08 04:13:57;;;;;;;48.40;5.88;;;;;;;24.47;100.00;97209.09;4968719;28;20030;-55
2022/09/08 04:16:22;;;;;;;47.92;6.22;;;;;;;24.17;100.00;97220.31;4965822;28;20068;-54
2022/09/08 04:18:48;;;;;;;37.35;5.85;;;;;;;24.04;100.00;97218.16;4968311;28;20117;-54
2022/09/08 04:21:13;;;;;;;44.30;5.97;;;;;;;23.70;100.00;97241.41;4965184;28;20512;-54
2022/09/08 04:23:39;;;;;;;34.80;5.82;;;;;;;23.62;100.00;97235.06;4967733;28;20679;-54
2022/09/08 04:26:10;;;;;;;40.72;5.90;;;;;;;23.14;100.00;97233.94;4966935;28;20066;-55
2022/09/08 04:28:35;;;;;;;39.97;5.97;;;;;;;23.72;100.00;97234.06;4967605;28;20515;-54
2022/09/08 04:31:09;;;;;;;48.88;6.65;;;;;;;23.88;100.00;97242.13;4963704;28;20046;-54
2022/09/08 04:33:35;;;;;;;42.25;5.88;;;;;;;23.42;100.00;97254.97;4966747;28;20034;-55
2022/09/08 04:36:06;;;;;;;31.25;4.97;;;;;;;23.28;100.00;97251.94;4967432;28;20088;-54
2022/09/08 04:38:31;;;;;;;47.25;6.35;;;;;;;24.03;100.00;97242.28;4970617;28;20114;-54
2022/09/08 04:41:04;;;;;;;39.22;5.38;;;;;;;24.93;100.00;97244.81;4970867;28;20128;-53
2022/09/08 04:43:31;;;;;;;31.48;5.22;;;;;;;23.80;100.00;97252.75;4971046;28;20034;-54
2022/09/08 04:46:04;;;;;;;26.48;4.88;;;;;;;23.52;100.00;97254.84;4970262;28;20150;-54
2022/09/08 04:48:30;;;;;;;31.33;5.22;;;;;;;24.00;100.00;97251.41;4985107;28;20026;-53
2022/09/08 04:50:56;;;;;;;42.72;6.35;;;;;;;24.36;100.00;97250.25;4969731;28;20054;-53
2022/09/08 04:53:22;;;;;;;34.33;5.32;;;;;;;24.00;100.00;97253.25;4970463;28;20039;-53
2022/09/08 04:55:48;;;;;;;41.00;6.15;;;;;;;24.09;100.00;97251.44;4967646;28;20524;-53
2022/09/08 04:58:13;;;;;;;38.15;5.75;;;;;;;23.61;100.00;97251.19;4969170;28;20089;-54
2022/09/08 05:00:39;;;;;;;36.20;5.88;;;;;;;23.40;100.00;97257.81;4970632;28;20042;-53
2022/09/08 05:03:04;;;;;;;33.35;5.57;;;;;;;24.32;100.00;97256.94;4971711;28;20038;-53
2022/09/08 05:05:29;;;;;;;28.75;5.00;;;;;;;24.67;100.00;97258.41;4969928;28;20063;-53
2022/09/08 05:07:55;;;;;;;36.20;5.93;;;;;;;24.21;100.00;97260.78;4973186;28;20383;-53
2022/09/08 05:10:22;;;;;;;31.58;5.65;;;;;;;23.20;100.00;97262.56;4969013;28;20055;-52
2022/09/08 05:12:47;;;;;;;37.65;6.30;;;;;;;23.44;100.00;97258.31;4969256;28;20057;-53
2022/09/08 05:15:12;;;;;;;31.73;4.95;;;;;;;24.34;100.00;97249.59;4968718;28;20058;-53
2022/09/08 05:17:38;;;;;;;31.35;5.40;;;;;;;24.10;100.00;97251.28;4969409;28;20499;-53
2022/09/08 05:20:04;;;;;;;29.90;5.00;;;;;;;24.93;100.00;97238.66;4967213;28;20025;-53
2022/09/08 05:22:30;;;;;;;38.30;5.72;;;;;;;24.38;100.00;97249.09;4970480;28;20035;-55
2022/09/08 05:24:55;;;;;;;31.88;5.50;;;;;;;24.24;100.00;97249.75;4982985;28;20336;-54
2022/09/08 05:27:21;;;;;;;37.53;6.05;;;;;;;24.31;100.00;97249.94;4970471;28;20034;-53
2022/09/08 05:29:46;;;;;;;30.45;5.05;;;;;;;25.49;100.00;97242.09;4972382;28;20481;-53
2022/09/08 05:32:12;;;;;;;37.38;6.05;;;;;;;24.92;100.00;97255.66;4977011;28;20762;-54
2022/09/08 05:34:38;;;;;;;32.13;5.13;;;;;;;24.50;100.00;97259.41;4985056;28;20053;-54
2022/09/08 05:37:03;;;;;;;40.17;6.07;;;;;;;24.59;100.00;97261.06;4968344;28;20096;-55
2022/09/08 05:39:29;;;;;;;34.28;7.10;;;;;;;24.59;100.00;97263.75;4969755;28;20039;-55
2022/09/08 05:41:54;;;;;;;43.67;7.78;;;;;;;24.55;100.00;97270.41;4968159;28;20165;-56
2022/09/08 05:44:20;;;;;;;34.97;5.15;;;;;;;23.48;100.00;97276.44;4966721;28;20042;-54
2022/09/08 05:46:45;;;;;;;37.03;5.70;;;;;;;24.02;100.00;97272.56;4977062;28;20035;-54
2022/09/08 05:49:10;;;;;;;36.85;5.63;;;;;;;24.39;100.00;97266.75;4967298;28;20432;-54
2022/09/08 05:51:36;;;;;;;33.85;5.13;;;;;;;24.23;100.00;97274.75;4965885;28;20161;-54
2022/09/08 05:54:01;;;;;;;37.67;5.63;;;;;;;24.33;100.00;97275.41;4967416;28;20116;-57
2022/09/08 05:56:27;;;;;;;28.13;4.55;;;;;;;24.97;100.00;97282.66;4967861;28;20234;-56
2022/09/08 05:58:59;;;;;;;40.85;5.78;;;;;;;24.10;100.00;97279.75;4967680;28;20031;-54
2022/09/08 06:01:28;;;;;;;36.28;5.35;;;;;;;24.73;100.00;97276.38;4967835;28;20141;-54
2022/09/08 06:03:54;;;;;;;31.75;5.15;;;;;;;24.59;100.00;97279.75;4969406;28;20724;-54
2022/09/08 06:06:20;;;;;;;37.28;5.25;;;;;;;24.11;100.00;97286.72;4969673;28;20118;-53
2022/09/08 06:08:46;;;;;;;31.00;4.82;;;;;;;24.15;100.00;97296.06;4967210;28;20034;-53
2022/09/08 06:11:12;;;;;;;35.55;5.22;;;;;;;24.49;100.00;97287.06;4967163;28;20046;-54
2022/09/08 06:13:38;;;;;;;24.20;4.30;;;;;;;24.07;100.00;97288.06;4969304;28;20038;-54
2022/09/08 06:16:04;;;;;;;29.50;4.85;;;;;;;23.77;100.00;97301.00;4971360;28;20121;-53
2022/09/08 06:18:43;;;;;;;40.30;5.60;;;;;;;24.21;100.00;97292.75;4970757;28;20041;-54
2022/09/08 06:21:11;;;;;;;32.67;4.75;;;;;;;24.57;100.00;97293.22;4967064;28;20077;-55
2022/09/08 06:23:37;;;;;;;35.13;5.20;;;;;;;24.17;100.00;97294.06;4968296;28;20078;-55
2022/09/08 06:26:15;;;;;;;28.92;4.40;;;;;;;23.81;100.00;97303.19;4968351;28;20101;-53
2022/09/08 06:28:58;;;;;;;45.17;5.75;;;;;;;25.30;100.00;97294.06;4967420;28;20027;-55
2022/09/08 06:31:31;;;;;;;26.85;4.10;;;;;;;24.25;100.00;97296.72;4969869;28;20050;-54
2022/09/08 06:34:02;;;;;;;32.67;4.60;;;;;;;24.93;100.00;97295.50;4969574;28;20044;-54
2022/09/08 06:36:43;;;;;;;27.00;4.05;;;;;;;24.57;100.00;97292.41;4968949;28;20100;-54
2022/09/08 06:39:17;;;;;;;32.33;4.30;;;;;;;24.56;100.00;97290.75;4968013;28;20038;-54
2022/09/08 06:41:49;;;;;;;35.30;5.00;;;;;;;25.64;100.00;97289.41;4967100;28;20035;-54
2022/09/08 06:44:20;;;;;;;30.65;3.95;;;;;;;24.58;100.00;97288.75;4967393;28;20208;-54
2022/09/08 06:46:46;;;;;;;32.30;4.45;;;;;;;24.57;100.00;97303.06;4966971;28;20125;-53
2022/09/08 06:49:11;;;;;;;27.42;4.03;;;;;;;24.63;100.00;97292.56;4969225;28;20940;-56
2022/09/08 06:52:01;;;;;;;26.60;4.00;;;;;;;24.64;100.00;97298.72;4965297;28;20733;-55
2022/09/08 06:54:51;;;;;;;27.15;4.20;;;;;;;24.50;100.00;97302.91;4966452;28;20027;-53
2022/09/08 06:57:29;;;;;;;33.58;4.75;;;;;;;24.21;100.00;97309.56;4966572;28;20125;-56
2022/09/08 07:00:02;;;;;;;35.58;4.70;;;;;;;24.71;100.00;97304.22;4967429;28;20122;-54
2022/09/08 07:03:02;;;;;;;26.98;4.25;;;;;;;24.40;100.00;97319.03;4965434;28;20108;-54
2022/09/08 07:05:41;;;;;;;24.95;4.05;;;;;;;25.01;100.00;97308.84;4969676;28;20182;-56
2022/09/08 07:08:15;;;;;;;20.13;3.80;;;;;;;24.73;100.00;97313.72;4969767;28;20828;-54
2022/09/08 07:10:59;;;;;;;24.77;3.90;;;;;;;25.26;100.00;97324.78;4971083;28;20509;-54
2022/09/08 07:13:53;;;;;;;22.70;3.80;;;;;;;24.97;100.00;97330.69;4970204;28;20465;-56
2022/09/08 07:16:41;;;;;;;24.02;3.70;;;;;;;24.23;100.00;97333.38;4969496;28;20038;-55
2022/09/08 07:19:56;;;;;;;29.95;4.22;;;;;;;24.22;100.00;97339.69;4983777;28;20022;-54
2022/09/08 07:22:40;;;;;;;28.70;4.30;;;;;;;24.17;100.00;97345.53;4947537;28;20046;-57
2022/09/08 07:25:15;;;;;;;29.45;4.05;;;;;;;24.84;100.00;97346.38;4970756;28;20033;-54
2022/09/08 07:27:41;;;;;;;20.67;3.53;;;;;;;24.38;100.00;97353.03;4970816;28;20050;-54
2022/09/08 07:30:13;;;;;;;21.75;3.47;;;;;;;23.91;100.00;97356.28;4969139;28;20162;-53
2022/09/08 07:32:39;;;;;;;26.67;3.90;;;;;;;23.85;100.00;97357.75;4969631;28;20026;-55
2022/09/08 07:35:12;;;;;;;23.25;3.67;;;;;;;24.17;100.00;97366.84;4970660;28;20035;-55
2022/09/08 07:37:49;;;;;;;27.50;4.28;;;;;;;24.54;100.00;97362.06;4959671;28;20209;-54
2022/09/08 07:40:19;;;;;;;30.48;4.70;;;;;;;24.58;100.00;97369.56;4969041;28;20027;-54
2022/09/08 07:42:50;;;;;;;33.08;4.47;;;;;;;24.16;100.00;97375.00;4969116;28;20711;-55
2022/09/08 07:45:16;;;;;;;35.45;5.22;;;;;;;24.40;100.00;97375.00;4968439;28;20109;-54
2022/09/08 07:48:00;;;;;;;31.30;4.60;;;;;;;24.20;100.00;97379.81;4970214;28;20113;-55
2022/09/08 07:53:37;;;;;;;29.88;4.82;;;;;;;24.66;100.00;97381.22;4971798;28;20045;-54
2022/09/08 07:56:20;;;;;;;24.70;3.92;;;;;;;24.58;100.00;97385.56;4969170;28;20038;-55
2022/09/08 07:59:27;;;;;;;28.38;4.32;;;;;;;24.64;100.00;97384.06;4969731;28;20510;-54
2022/09/08 08:02:11;;;;;;;25.00;4.00;;;;;;;24.39;100.00;97385.84;4969219;28;20038;-54
2022/09/08 08:04:51;;;;;;;30.50;4.43;;;;;;;24.86;100.00;97392.38;4969235;28;20109;-54
2022/09/08 08:07:26;;;;;;;30.60;4.45;;;;;;;23.85;100.00;97395.03;4968988;28;20185;-54
2022/09/08 08:10:18;;;;;;;28.70;4.03;;;;;;;24.42;100.00;97391.66;4971602;28;20439;-54
2022/09/08 08:13:23;;;;;;;34.67;4.57;;;;;;;24.01;100.00;97394.28;4970962;28;20444;-54
2022/09/08 08:16:00;;;;;;;30.45;4.10;;;;;;;23.93;100.00;97401.41;4961962;28;20198;-54
2022/09/08 08:18:50;;;;;;;25.45;3.63;;;;;;;24.13;100.00;97399.28;4974801;28;20077;-54
2022/09/08 08:21:23;;;;;;;27.65;4.05;;;;;;;24.29;100.00;97401.97;4970747;28;20050;-58
2022/09/08 08:24:07;;;;;;;34.08;4.45;;;;;;;24.99;100.00;97400.69;4972038;28;20034;-55
2022/09/08 08:26:43;;;;;;;21.02;3.50;;;;;;;24.51;100.00;97403.19;4971996;28;20038;-55
2022/09/08 08:29:17;;;;;;;23.38;3.78;;;;;;;24.91;100.00;97406.06;4971568;28;20047;-54
2022/09/08 08:31:49;;;;;;;23.33;3.67;;;;;;;24.48;100.00;97400.00;4972721;28;20157;-54
2022/09/08 08:35:04;;;;;;;28.83;4.22;;;;;;;24.50;100.00;97411.34;4972951;28;20039;-55
2022/09/08 08:37:32;;;;;;;20.85;3.50;;;;;;;24.37;100.00;97404.69;4969187;28;20065;-54
2022/09/08 08:40:00;;;;;;;27.27;4.13;;;;;;;24.40;100.00;97401.66;4973073;28;20054;-54
2022/09/08 08:42:46;;;;;;;25.33;3.90;;;;;;;24.70;100.00;97409.22;4970576;28;20042;-56
2022/09/08 08:45:31;;;;;;;27.25;4.03;;;;;;;25.16;100.00;97405.03;4971166;28;20679;-56
2022/09/08 08:48:19;;;;;;;33.13;4.20;;;;;;;23.73;100.00;97417.63;4970890;28;20058;-54
2022/09/08 08:51:02;;;;;;;23.88;3.67;;;;;;;24.61;100.00;97413.69;4971020;28;20122;-54
2022/09/08 08:53:46;;;;;;;26.77;3.80;;;;;;;24.91;100.00;97408.72;4973481;28;20074;-54
2022/09/08 08:56:11;;;;;;;34.33;4.60;;;;;;;24.92;100.00;97405.84;4972513;28;20129;-55
2022/09/08 08:58:55;;;;;;;27.55;3.60;;;;;;;24.90;100.00;97413.19;4971254;28;20141;-54
2022/09/08 09:01:53;;;;;;;32.75;4.38;;;;;;;25.37;100.00;97415.16;4972202;28;20047;-56
2022/09/08 09:04:35;;;;;;;28.83;4.28;;;;;;;24.87;100.00;97410.88;4932330;28;20047;-55
2022/09/08 09:07:23;;;;;;;26.55;3.55;;;;;;;25.01;100.00;97407.56;4972540;28;20074;-55
2022/09/08 09:10:10;;;;;;;25.92;3.90;;;;;;;24.91;100.00;97406.88;4972458;28;20065;-55
2022/09/08 09:12:41;;;;;;;21.98;3.38;;;;;;;24.71;100.00;97403.72;4972760;28;20157;-55
2022/09/08 09:15:48;;;;;;;22.63;3.53;;;;;;;24.48;100.00;97405.34;4968884;28;20154;-55
2022/09/08 09:18:40;;;;;;;22.83;3.45;;;;;;;26.07;100.00;97407.41;4971194;28;20046;-55
2022/09/08 09:21:47;;;;;;;37.20;4.60;;;;;;;25.01;100.00;97396.88;4959332;28;20031;-55
2022/09/08 09:24:30;;;;;;;25.45;3.60;;;;;;;25.20;100.00;97409.00;4988343;28;20049;-55
2022/09/08 09:26:56;;;;;;;28.30;4.00;;;;;;;25.79;100.00;97399.84;4972989;28;20051;-54
2022/09/08 09:29:24;;;;;;;35.97;4.35;;;;;;;24.69;100.00;97403.06;4972736;28;20137;-55
2022/09/08 09:31:49;;;;;;;28.55;3.80;;;;;;;24.97;100.00;97395.53;4972283;28;20192;-54
2022/09/08 09:34:36;;;;;;;26.27;3.72;;;;;;;26.34;100.00;97393.53;4971530;28;20257;-56
2022/09/08 09:37:39;;;;;;;33.60;3.85;;;;;;;25.70;100.00;97406.22;4973133;28;20043;-56
2022/09/08 09:40:08;;;;;;;37.50;4.85;;;;;;;26.00;100.00;97390.41;4969599;28;20041;-55
2022/09/08 09:42:46;;;;;;;39.08;4.95;;;;;;;25.67;100.00;97414.56;4970412;28;20034;-58
2022/09/08 09:45:30;;;;;;;23.30;3.97;;;;;;;26.27;100.00;97411.28;4970524;28;20093;-55
2022/09/08 09:48:13;;;;;;;34.17;4.80;;;;;;;26.73;100.00;97414.00;4970217;28;20027;-54
2022/09/08 09:50:52;;;;;;;38.95;5.13;;;;;;;26.40;100.00;97423.25;4969492;28;20154;-57
2022/09/08 09:53:23;;;;;;;29.02;4.05;;;;;;;25.45;100.00;97424.97;4970687;28;20065;-55
2022/09/08 09:56:25;;;;;;;30.92;4.32;;;;;;;25.38;100.00;97413.31;4969970;28;20122;-57
2022/09/08 09:58:53;;;;;;;38.97;4.97;;;;;;;25.64;100.00;97414.91;4971572;28;20035;-57
2022/09/08 10:01:34;;;;;;;37.60;4.63;;;;;;;25.52;100.00;97409.94;4970694;28;20054;-56
2022/09/08 10:04:24;;;;;;;35.70;4.53;;;;;;;26.14;100.00;97403.84;4970798;28;20560;-55
2022/09/08 10:07:23;;;;;;;38.72;4.95;;;;;;;26.32;100.00;97413.41;4970720;28;20069;-58
2022/09/08 10:10:08;;;;;;;44.10;5.32;;;;;;;26.73;100.00;97414.00;4984729;28;20654;-54
2022/09/08 10:12:58;;;;;;;29.58;3.85;;;;;;;26.45;100.00;97410.16;4968832;28;20069;-55
2022/09/08 10:16:11;;;;;;;31.73;3.92;;;;;;;26.64;100.00;97407.06;4970421;28;20622;-58
2022/09/08 10:18:58;;;;;;;29.38;3.92;;;;;;;28.74;100.00;97400.59;4967793;28;20549;-55
2022/09/08 10:21:23;;;;;;;29.08;3.75;;;;;;;29.91;100.00;97408.00;4970194;28;20047;-55
2022/09/08 10:24:18;;;;;;;24.47;3.37;;;;;;;28.61;100.00;97394.06;4972251;28;20124;-56
2022/09/08 10:27:09;;;;;;;32.67;4.05;;;;;;;29.15;100.00;97408.81;4970532;28;20270;-55
2022/09/08 10:30:00;;;;;;;23.38;3.25;;;;;;;29.94;100.00;97415.69;4969994;28;20053;-58
2022/09/08 10:32:47;;;;;;;33.08;3.90;;;;;;;29.18;100.00;97416.44;4968520;28;20042;-55
2022/09/08 10:35:18;;;;;;;32.72;4.30;;;;;;;28.56;100.00;97409.94;4969024;28;20069;-56
2022/09/08 10:37:56;;;;;;;28.20;3.85;;;;;;;27.96;100.00;97408.44;4969834;28;20496;-58
2022/09/08 10:40:33;;;;;;;29.05;3.95;;;;;;;27.69;100.00;97410.72;4968925;28;20535;-55
2022/09/08 10:43:04;;;;;;;28.08;3.53;;;;;;;27.76;100.00;97419.69;4968924;28;20094;-56
2022/09/08 10:45:54;;;;;;;23.92;3.22;;;;;;;27.88;100.00;97422.72;4967586;28;20528;-56
2022/09/08 10:48:31;;;;;;;31.10;4.22;;;;;;;28.77;100.00;97413.63;4969577;28;20034;-55
2022/09/08 10:51:36;;;;;;;31.35;4.07;;;;;;;28.42;100.00;97418.84;4969097;28;20051;-55
2022/09/08 10:54:38;;;;;;;28.02;3.80;;;;;;;27.25;100.00;97430.25;4967764;28;20053;-57
2022/09/08 10:57:29;;;;;;;27.08;3.65;;;;;;;25.98;100.00;97430.66;4970940;28;20038;-55
2022/09/08 11:00:00;;;;;;;29.98;3.72;;;;;;;27.05;100.00;97444.16;4969801;28;20030;-55
2022/09/08 11:02:31;;;;;;;30.35;4.15;;;;;;;27.05;100.00;97441.47;4967888;28;20228;-55
2022/09/08 11:05:24;;;;;;;29.00;3.83;;;;;;;27.07;100.00;97442.16;4967756;28;20499;-55
2022/09/08 11:07:56;;;;;;;27.13;3.63;;;;;;;27.18;100.00;97440.03;4969516;28;20049;-54
2022/09/08 11:10:54;;;;;;;32.03;4.13;;;;;;;27.18;100.00;97437.34;4968233;28;20503;-55
2022/09/08 11:13:29;;;;;;;29.38;3.80;;;;;;;27.58;100.00;97443.34;4969016;28;20031;-57
2022/09/08 11:16:16;;;;;;;26.38;3.85;;;;;;;29.50;95.56;97442.91;4969204;28;20042;-54
2022/09/08 11:18:44;;;;;;;39.30;4.28;;;;;;;28.68;95.95;97441.63;4970517;28;20034;-56
2022/09/08 11:21:28;;;;;;;22.95;3.10;;;;;;;28.01;95.84;97444.38;4969553;28;20066;-55
2022/09/08 11:24:30;;;;;;;26.17;3.50;;;;;;;27.95;98.49;97444.28;4971381;28;20042;-55
2022/09/08 11:27:07;;;;;;;;;;;;;;;27.71;95.36;97446.19;4969855;28;20045;-54
2022/09/08 11:29:38;;;;;;;21.15;3.03;;;;;;;28.61;91.11;97453.09;4967796;28;19913;-58
2022/09/08 11:32:31;;;;;;;22.80;3.20;;;;;;;27.54;90.78;97447.41;4968732;28;20049;-55
2022/09/08 11:35:30;;;;;;;26.73;3.30;;;;;;;27.65;87.27;97446.94;4967929;28;20507;-56
2022/09/08 11:38:15;;;;;;;28.98;3.60;;;;;;;27.30;89.87;97452.00;4971916;28;20158;-56
2022/09/08 11:41:05;;;;;;;29.88;3.95;;;;;;;27.34;92.00;97460.50;4966717;28;20056;-56
2022/09/08 11:43:48;;;;;;;23.95;3.10;;;;;;;27.86;89.04;97465.81;4968982;28;20089;-56
2022/09/08 11:46:17;;;;;;;23.90;3.17;;;;;;;27.65;85.94;97460.34;4968227;28;20350;-55
2022/09/08 11:49:20;;;;;;;27.17;3.38;;;;;;;27.45;93.22;97450.16;4970064;28;20023;-56
2022/09/08 11:52:24;;;;;;;26.20;3.22;;;;;;;27.68;88.51;97455.44;4968495;28;20540;-57
2022/09/08 11:55:26;;;;;;;32.15;3.92;;;;;;;28.31;85.67;97457.72;4967457;28;20671;-55
2022/09/08 11:57:57;;;;;;;26.33;3.60;;;;;;;28.09;85.27;97451.47;4969184;28;20035;-57
2022/09/08 12:00:52;;;;;;;26.13;3.63;;;;;;;28.12;83.99;97451.06;4967921;28;20026;-55